sensor_id;sensor_type;location;lat;lon;timestamp;pressure;altitude;pressure_sealevel;temperature;humidity
55656;BME280;41530;52.382;5.270;2024-02-26T00:02:07;100266.78;;;15.13;54.06
55656;BME280;41530;52.382;5.270;2024-02-26T00:04:34;100305.25;;;15.34;54.31
55656;BME280;41530;52.382;5.270;2024-02-26T00:07:01;100306.63;;;15.39;54.28
55656;BME280;41530;52.382;5.270;2024-02-26T00:09:27;100292.75;;;15.27;54.24
55656;BME280;41530;52.382;5.270;2024-02-26T00:11:54;100309.41;;;15.37;54.14
55656;BME280;41530;52.382;5.270;2024-02-26T00:14:21;100297.38;;;15.25;54.09
55656;BME280;41530;52.382;5.270;2024-02-26T00:16:48;100296.53;;;15.24;53.96
55656;BME280;41530;52.382;5.270;2024-02-26T00:19:15;100259.28;;;15.08;53.97
55656;BME280;41530;52.382;5.270;2024-02-26T00:21:42;100277.09;;;15.16;53.96
55656;BME280;41530;52.382;5.270;2024-02-26T00:24:09;100263.06;;;15.06;53.86
55656;BME280;41530;52.382;5.270;2024-02-26T00:26:35;100262.22;;;15.05;53.98
55656;BME280;41530;52.382;5.270;2024-02-26T00:29:02;100308.38;;;15.30;54.00
55656;BME280;41530;52.382;5.270;2024-02-26T00:31:29;100264.22;;;15.03;54.08
55656;BME280;41530;52.382;5.270;2024-02-26T00:33:56;100317.44;;;15.27;53.86
55656;BME280;41530;52.382;5.270;2024-02-26T00:36:23;100288.25;;;15.10;53.93
55656;BME280;41530;52.382;5.270;2024-02-26T00:38:50;100308.25;;;15.22;53.96
55656;BME280;41530;52.382;5.270;2024-02-26T00:41:20;100274.00;;;14.93;53.92
55656;BME280;41530;52.382;5.270;2024-02-26T00:43:47;100319.00;;;15.20;54.10
55656;BME280;41530;52.382;5.270;2024-02-26T00:46:13;100325.00;;;15.22;53.76
55656;BME280;41530;52.382;5.270;2024-02-26T00:48:43;100309.31;;;15.11;54.08
55656;BME280;41530;52.382;5.270;2024-02-26T00:51:10;100321.97;;;15.17;53.70
55656;BME280;41530;52.382;5.270;2024-02-26T00:53:37;100298.66;;;15.03;53.79
55656;BME280;41530;52.382;5.270;2024-02-26T00:56:04;100326.13;;;15.20;53.70
55656;BME280;41530;52.382;5.270;2024-02-26T00:58:31;100318.66;;;15.15;53.96
55656;BME280;41530;52.382;5.270;2024-02-26T01:00:58;100316.97;;;15.14;53.82
55656;BME280;41530;52.382;5.270;2024-02-26T01:03:27;100288.78;;;14.95;53.80
55656;BME280;41530;52.382;5.270;2024-02-26T01:05:57;100315.75;;;15.09;53.75
55656;BME280;41530;52.382;5.270;2024-02-26T01:08:25;100327.41;;;15.16;53.63
55656;BME280;41530;52.382;5.270;2024-02-26T01:10:51;100322.41;;;15.13;53.82
55656;BME280;41530;52.382;5.270;2024-02-26T01:13:18;100323.53;;;15.10;53.59
55656;BME280;41530;52.382;5.270;2024-02-26T01:15:45;100320.06;;;15.10;53.63
55656;BME280;41530;52.382;5.270;2024-02-26T01:18:12;100332.31;;;15.11;53.88
55656;BME280;41530;52.382;5.270;2024-02-26T01:20:39;100285.63;;;14.82;53.71
55656;BME280;41530;52.382;5.270;2024-02-26T01:23:05;100317.47;;;15.00;53.71
55656;BME280;41530;52.382;5.270;2024-02-26T01:25:32;100331.78;;;15.07;53.61
55656;BME280;41530;52.382;5.270;2024-02-26T01:27:59;100332.63;;;15.08;53.64
55656;BME280;41530;52.382;5.270;2024-02-26T01:30:25;100321.94;;;15.00;53.82
55656;BME280;41530;52.382;5.270;2024-02-26T01:32:52;100327.59;;;15.05;53.78
55656;BME280;41530;52.382;5.270;2024-02-26T01:35:19;100337.53;;;15.03;53.61
55656;BME280;41530;52.382;5.270;2024-02-26T01:37:46;100331.25;;;15.04;53.74
55656;BME280;41530;52.382;5.270;2024-02-26T01:40:13;100297.66;;;14.77;53.82
55656;BME280;41530;52.382;5.270;2024-02-26T01:42:44;100329.75;;;15.01;53.58
55656;BME280;41530;52.382;5.270;2024-02-26T01:45:16;100319.50;;;14.88;53.77
55656;BME280;41530;52.382;5.270;2024-02-26T01:47:51;100347.28;;;15.02;53.86
55656;BME280;41530;52.382;5.270;2024-02-26T01:50:19;100322.84;;;14.90;53.67
55656;BME280;41530;52.382;5.270;2024-02-26T01:52:47;100326.47;;;14.89;53.66
55656;BME280;41530;52.382;5.270;2024-02-26T01:55:14;100332.59;;;14.90;53.70
55656;BME280;41530;52.382;5.270;2024-02-26T01:57:45;100340.47;;;15.00;53.71
55656;BME280;41530;52.382;5.270;2024-02-26T02:00:14;100344.09;;;14.98;53.69
55656;BME280;41530;52.382;5.270;2024-02-26T02:02:41;100309.75;;;14.79;53.61
55656;BME280;41530;52.382;5.270;2024-02-26T02:05:11;100336.59;;;14.94;53.75
55656;BME280;41530;52.382;5.270;2024-02-26T02:07:39;100326.47;;;14.89;53.74
55656;BME280;41530;52.382;5.270;2024-02-26T02:10:07;100335.75;;;14.93;53.87
55656;BME280;41530;52.382;5.270;2024-02-26T02:12:35;100311.19;;;14.74;53.89
55656;BME280;41530;52.382;5.270;2024-02-26T02:15:05;100316.22;;;14.77;53.88
55656;BME280;41530;52.382;5.270;2024-02-26T02:17:32;100296.34;;;14.63;53.98
55656;BME280;41530;52.382;5.270;2024-02-26T02:19:59;100309.13;;;14.68;53.78
55656;BME280;41530;52.382;5.270;2024-02-26T02:22:29;100338.75;;;14.81;53.66
55656;BME280;41530;52.382;5.270;2024-02-26T02:24:58;100342.09;;;14.83;53.66
55656;BME280;41530;52.382;5.270;2024-02-26T02:27:26;100352.38;;;14.86;53.88
55656;BME280;41530;52.382;5.270;2024-02-26T02:29:53;100321.00;;;14.64;53.89
55656;BME280;41530;52.382;5.270;2024-02-26T02:32:21;100369.81;;;14.88;53.93
55656;BME280;41530;52.382;5.270;2024-02-26T02:34:48;100375.09;;;14.88;53.60
55656;BME280;41530;52.382;5.270;2024-02-26T02:37:15;100377.91;;;14.87;53.62
55656;BME280;41530;52.382;5.270;2024-02-26T02:39:41;100370.97;;;14.76;53.74
55656;BME280;41530;52.382;5.270;2024-02-26T02:42:09;100378.19;;;14.84;53.69
55656;BME280;41530;52.382;5.270;2024-02-26T02:44:39;100375.53;;;14.84;53.58
55656;BME280;41530;52.382;5.270;2024-02-26T02:47:06;100376.78;;;14.80;53.74
55656;BME280;41530;52.382;5.270;2024-02-26T02:49:33;100368.31;;;14.76;53.84
55656;BME280;41530;52.382;5.270;2024-02-26T02:52:00;100372.94;;;14.74;53.66
55656;BME280;41530;52.382;5.270;2024-02-26T02:54:27;100359.19;;;14.61;53.65
55656;BME280;41530;52.382;5.270;2024-02-26T02:56:54;100372.94;;;14.74;53.83
55656;BME280;41530;52.382;5.270;2024-02-26T02:59:20;100380.72;;;14.76;53.70
55656;BME280;41530;52.382;5.270;2024-02-26T03:01:47;100375.31;;;14.68;53.83
55656;BME280;41530;52.382;5.270;2024-02-26T03:04:14;100366.16;;;14.62;53.78
55656;BME280;41530;52.382;5.270;2024-02-26T03:06:40;100367.13;;;14.61;53.82
55656;BME280;41530;52.382;5.270;2024-02-26T03:09:10;100374.47;;;14.67;53.59
55656;BME280;41530;52.382;5.270;2024-02-26T03:11:37;100377.94;;;14.68;54.12
55656;BME280;41530;52.382;5.270;2024-02-26T03:14:04;100392.44;;;14.73;53.72
55656;BME280;41530;52.382;5.270;2024-02-26T03:16:31;100388.13;;;14.72;53.83
55656;BME280;41530;52.382;5.270;2024-02-26T03:18:58;100354.34;;;14.47;53.75
55656;BME280;41530;52.382;5.270;2024-02-26T03:21:27;100397.19;;;14.70;53.53
55656;BME280;41530;52.382;5.270;2024-02-26T03:23:54;100374.78;;;14.54;53.76
55656;BME280;41530;52.382;5.270;2024-02-26T03:26:21;100385.66;;;14.61;53.96
55656;BME280;41530;52.382;5.270;2024-02-26T03:28:47;100397.91;;;14.62;53.60
55656;BME280;41530;52.382;5.270;2024-02-26T03:31:14;100373.28;;;14.42;53.70
55656;BME280;41530;52.382;5.270;2024-02-26T03:33:41;100413.34;;;14.67;53.52
55656;BME280;41530;52.382;5.270;2024-02-26T03:36:08;100409.19;;;14.64;53.58
55656;BME280;41530;52.382;5.270;2024-02-26T03:38:34;100388.63;;;14.48;53.72
55656;BME280;41530;52.382;5.270;2024-02-26T03:41:01;100407.09;;;14.58;53.76
55656;BME280;41530;52.382;5.270;2024-02-26T03:43:28;100351.03;;;14.16;53.79
55656;BME280;41530;52.382;5.270;2024-02-26T03:45:54;100419.38;;;14.59;53.71
55656;BME280;41530;52.382;5.270;2024-02-26T03:48:21;100384.13;;;14.39;53.84
55656;BME280;41530;52.382;5.270;2024-02-26T03:50:48;100401.97;;;14.47;53.68
55656;BME280;41530;52.382;5.270;2024-02-26T03:53:15;100369.25;;;14.28;53.65
55656;BME280;41530;52.382;5.270;2024-02-26T03:55:41;100424.38;;;14.62;53.72
55656;BME280;41530;52.382;5.270;2024-02-26T03:58:08;100432.47;;;14.60;53.69
55656;BME280;41530;52.382;5.270;2024-02-26T04:00:36;100430.66;;;14.51;53.89
55656;BME280;41530;52.382;5.270;2024-02-26T04:03:04;100437.34;;;14.55;53.79
55656;BME280;41530;52.382;5.270;2024-02-26T04:05:30;100440.97;;;14.54;53.73
55656;BME280;41530;52.382;5.270;2024-02-26T04:07:57;100440.81;;;14.56;53.82
55656;BME280;41530;52.382;5.270;2024-02-26T04:10:24;100447.09;;;14.55;53.78
55656;BME280;41530;52.382;5.270;2024-02-26T04:12:50;100449.88;;;14.53;53.74
55656;BME280;41530;52.382;5.270;2024-02-26T04:15:17;100455.72;;;14.57;53.87
55656;BME280;41530;52.382;5.270;2024-02-26T04:17:44;100434.56;;;14.47;53.65
55656;BME280;41530;52.382;5.270;2024-02-26T04:20:15;100463.66;;;14.57;53.61
55656;BME280;41530;52.382;5.270;2024-02-26T04:22:43;100457.94;;;14.52;53.60
55656;BME280;41530;52.382;5.270;2024-02-26T04:25:10;100452.00;;;14.50;53.86
55656;BME280;41530;52.382;5.270;2024-02-26T04:27:37;100440.84;;;14.37;53.74
55656;BME280;41530;52.382;5.270;2024-02-26T04:30:06;100426.75;;;14.26;53.72
55656;BME280;41530;52.382;5.270;2024-02-26T04:32:33;100461.75;;;14.49;53.61
55656;BME280;41530;52.382;5.270;2024-02-26T04:35:02;100478.16;;;14.53;53.76
55656;BME280;41530;52.382;5.270;2024-02-26T04:37:29;100429.72;;;14.23;53.63
55656;BME280;41530;52.382;5.270;2024-02-26T04:39:58;100469.25;;;14.44;53.63
55656;BME280;41530;52.382;5.270;2024-02-26T04:42:26;100484.72;;;14.49;53.58
55656;BME280;41530;52.382;5.270;2024-02-26T04:44:54;100477.34;;;14.43;53.63
55656;BME280;41530;52.382;5.270;2024-02-26T04:47:21;100488.34;;;14.48;53.74
55656;BME280;41530;52.382;5.270;2024-02-26T04:49:49;100484.44;;;14.42;53.40
55656;BME280;41530;52.382;5.270;2024-02-26T04:52:16;100492.94;;;14.46;53.40
55656;BME280;41530;52.382;5.270;2024-02-26T04:54:43;100497.97;;;14.49;53.75
55656;BME280;41530;52.382;5.270;2024-02-26T04:57:10;100473.56;;;14.36;53.64
55656;BME280;41530;52.382;5.270;2024-02-26T04:59:36;100495.59;;;14.46;53.82
55656;BME280;41530;52.382;5.270;2024-02-26T05:02:03;100496.00;;;14.41;53.76
55656;BME280;41530;52.382;5.270;2024-02-26T05:04:31;100487.06;;;14.33;53.66
55656;BME280;41530;52.382;5.270;2024-02-26T05:07:00;100507.16;;;14.45;53.51
55656;BME280;41530;52.382;5.270;2024-02-26T05:09:27;100499.72;;;14.39;53.69
55656;BME280;41530;52.382;5.270;2024-02-26T05:11:54;100473.72;;;14.24;53.78
55656;BME280;41530;52.382;5.270;2024-02-26T05:14:21;100500.44;;;14.41;53.64
55656;BME280;41530;52.382;5.270;2024-02-26T05:16:48;100450.97;;;14.12;53.63
55656;BME280;41530;52.382;5.270;2024-02-26T05:19:14;100499.31;;;14.34;53.40
55656;BME280;41530;52.382;5.270;2024-02-26T05:21:41;100441.50;;;14.00;53.56
55656;BME280;41530;52.382;5.270;2024-02-26T05:24:10;100474.81;;;14.22;53.59
55656;BME280;41530;52.382;5.270;2024-02-26T05:26:37;100497.78;;;14.31;53.61
55656;BME280;41530;52.382;5.270;2024-02-26T05:29:04;100511.03;;;14.41;53.66
55656;BME280;41530;52.382;5.270;2024-02-26T05:31:30;100489.59;;;14.24;53.48
55656;BME280;41530;52.382;5.270;2024-02-26T05:33:57;100513.53;;;14.33;53.60
55656;BME280;41530;52.382;5.270;2024-02-26T05:36:24;100525.50;;;14.37;53.56
55656;BME280;41530;52.382;5.270;2024-02-26T05:38:52;100502.81;;;14.24;53.56
55656;BME280;41530;52.382;5.270;2024-02-26T05:41:18;100514.91;;;14.27;53.50
55656;BME280;41530;52.382;5.270;2024-02-26T05:43:50;100510.03;;;14.22;53.66
55656;BME280;41530;52.382;5.270;2024-02-26T05:46:17;100524.38;;;14.30;53.61
55656;BME280;41530;52.382;5.270;2024-02-26T05:48:46;100529.53;;;14.31;53.44
55656;BME280;41530;52.382;5.270;2024-02-26T05:51:13;100534.25;;;14.27;54.02
55656;BME280;41530;52.382;5.270;2024-02-26T05:53:43;100543.72;;;14.30;54.64
55656;BME280;41530;52.382;5.270;2024-02-26T05:56:10;100546.13;;;14.33;54.92
55656;BME280;41530;52.382;5.270;2024-02-26T05:58:37;100523.97;;;14.24;54.73
55656;BME280;41530;52.382;5.270;2024-02-26T06:01:04;100557.09;;;14.38;54.96
55656;BME280;41530;52.382;5.270;2024-02-26T06:03:31;100556.28;;;14.38;54.56
55656;BME280;41530;52.382;5.270;2024-02-26T06:05:57;100558.94;;;14.38;54.86
55656;BME280;41530;52.382;5.270;2024-02-26T06:08:24;100534.56;;;14.24;54.58
55656;BME280;41530;52.382;5.270;2024-02-26T06:10:51;100565.88;;;14.39;54.69
55656;BME280;41530;52.382;5.270;2024-02-26T06:13:18;100545.41;;;14.21;54.57
55656;BME280;41530;52.382;5.270;2024-02-26T06:15:45;100586.09;;;14.40;54.73
55656;BME280;41530;52.382;5.270;2024-02-26T06:18:11;100546.66;;;14.17;54.53
55656;BME280;41530;52.382;5.270;2024-02-26T06:20:38;100552.63;;;14.19;54.37
55656;BME280;41530;52.382;5.270;2024-02-26T06:23:05;100576.31;;;14.31;54.28
55656;BME280;41530;52.382;5.270;2024-02-26T06:25:31;100539.69;;;14.07;54.27
55656;BME280;41530;52.382;5.270;2024-02-26T06:27:58;100571.44;;;14.26;54.30
55656;BME280;41530;52.382;5.270;2024-02-26T06:30:25;100536.47;;;14.03;54.25
55656;BME280;41530;52.382;5.270;2024-02-26T06:32:52;100575.59;;;14.19;53.97
55656;BME280;41530;52.382;5.270;2024-02-26T06:35:19;100554.13;;;14.03;53.72
55656;BME280;41530;52.382;5.270;2024-02-26T06:37:45;100562.91;;;14.03;53.66
55656;BME280;41530;52.382;5.270;2024-02-26T06:40:12;100585.22;;;14.20;53.32
55656;BME280;41530;52.382;5.270;2024-02-26T06:42:39;100518.19;;;13.81;53.73
55656;BME280;41530;52.382;5.270;2024-02-26T06:45:06;100603.06;;;14.27;53.65
55656;BME280;41530;52.382;5.270;2024-02-26T06:47:34;100600.97;;;14.21;53.85
55656;BME280;41530;52.382;5.270;2024-02-26T06:50:00;100591.19;;;14.12;53.59
55656;BME280;41530;52.382;5.270;2024-02-26T06:52:27;100590.50;;;14.10;53.67
55656;BME280;41530;52.382;5.270;2024-02-26T06:54:54;100556.59;;;13.85;53.36
55656;BME280;41530;52.382;5.270;2024-02-26T06:57:21;100583.06;;;13.95;53.48
55656;BME280;41530;52.382;5.270;2024-02-26T06:59:48;100598.97;;;14.04;53.29
55656;BME280;41530;52.382;5.270;2024-02-26T07:02:15;100628.13;;;14.23;53.24
55656;BME280;41530;52.382;5.270;2024-02-26T07:04:45;100601.34;;;14.07;53.27
55656;BME280;41530;52.382;5.270;2024-02-26T07:07:12;100616.66;;;14.13;53.28
55656;BME280;41530;52.382;5.270;2024-02-26T07:09:41;100620.28;;;14.12;53.46
55656;BME280;41530;52.382;5.270;2024-02-26T07:12:08;100642.59;;;14.19;53.57
55656;BME280;41530;52.382;5.270;2024-02-26T07:14:35;100637.69;;;14.15;53.41
55656;BME280;41530;52.382;5.270;2024-02-26T07:17:04;100645.50;;;14.16;53.66
55656;BME280;41530;52.382;5.270;2024-02-26T07:19:30;100653.44;;;14.16;53.45
55656;BME280;41530;52.382;5.270;2024-02-26T07:21:57;100628.28;;;13.91;53.49
55656;BME280;41530;52.382;5.270;2024-02-26T07:24:24;100667.75;;;14.14;53.50
55656;BME280;41530;52.382;5.270;2024-02-26T07:26:53;100671.81;;;14.18;53.54
55656;BME280;41530;52.382;5.270;2024-02-26T07:29:21;100583.34;;;13.61;53.48
55656;BME280;41530;52.382;5.270;2024-02-26T07:31:48;100682.00;;;14.22;53.50
55656;BME280;41530;52.382;5.270;2024-02-26T07:34:15;100658.69;;;14.07;53.52
55656;BME280;41530;52.382;5.270;2024-02-26T07:36:42;100626.75;;;13.89;53.49
55656;BME280;41530;52.382;5.270;2024-02-26T07:39:13;100675.69;;;14.14;53.50
55656;BME280;41530;52.382;5.270;2024-02-26T07:41:40;100647.94;;;13.99;53.67
55656;BME280;41530;52.382;5.270;2024-02-26T07:44:13;100636.34;;;13.90;53.75
55656;BME280;41530;52.382;5.270;2024-02-26T07:46:42;100696.91;;;14.23;53.55
55656;BME280;41530;52.382;5.270;2024-02-26T07:49:09;100688.53;;;14.18;53.66
55656;BME280;41530;52.382;5.270;2024-02-26T07:51:36;100710.81;;;14.25;53.47
55656;BME280;41530;52.382;5.270;2024-02-26T07:54:02;100691.03;;;14.10;53.56
55656;BME280;41530;52.382;5.270;2024-02-26T07:56:29;100711.94;;;14.23;53.26
55656;BME280;41530;52.382;5.270;2024-02-26T07:58:56;100705.81;;;14.22;53.56
55656;BME280;41530;52.382;5.270;2024-02-26T08:01:23;100700.78;;;14.19;53.71
55656;BME280;41530;52.382;5.270;2024-02-26T08:03:49;100715.44;;;14.23;53.43
55656;BME280;41530;52.382;5.270;2024-02-26T08:06:16;100687.91;;;14.05;53.48
55656;BME280;41530;52.382;5.270;2024-02-26T08:08:43;100697.16;;;14.11;53.38
55656;BME280;41530;52.382;5.270;2024-02-26T08:11:10;100698.13;;;14.10;53.31
55656;BME280;41530;52.382;5.270;2024-02-26T08:13:37;100706.06;;;14.10;53.49
55656;BME280;41530;52.382;5.270;2024-02-26T08:16:04;100729.22;;;14.27;53.51
55656;BME280;41530;52.382;5.270;2024-02-26T08:18:31;100675.38;;;13.98;53.42
55656;BME280;41530;52.382;5.270;2024-02-26T08:20:58;100708.84;;;14.18;53.42
55656;BME280;41530;52.382;5.270;2024-02-26T08:23:25;100731.03;;;14.26;53.56
55656;BME280;41530;52.382;5.270;2024-02-26T08:25:52;100697.34;;;13.98;53.52
55656;BME280;41530;52.382;5.270;2024-02-26T08:28:19;100715.50;;;14.12;53.51
55656;BME280;41530;52.382;5.270;2024-02-26T08:30:46;100747.59;;;14.28;53.58
55656;BME280;41530;52.382;5.270;2024-02-26T08:33:12;100711.03;;;14.03;53.50
55656;BME280;41530;52.382;5.270;2024-02-26T08:35:40;100719.16;;;14.11;53.50
55656;BME280;41530;52.382;5.270;2024-02-26T08:38:12;100669.47;;;13.84;53.49
55656;BME280;41530;52.382;5.270;2024-02-26T08:40:39;100746.06;;;14.26;53.74
55656;BME280;41530;52.382;5.270;2024-02-26T08:43:06;100697.63;;;13.95;53.71
55656;BME280;41530;52.382;5.270;2024-02-26T08:45:33;100748.03;;;14.24;53.58
55656;BME280;41530;52.382;5.270;2024-02-26T08:47:59;100693.81;;;13.88;53.38
55656;BME280;41530;52.382;5.270;2024-02-26T08:50:29;100719.78;;;14.04;53.43
55656;BME280;41530;52.382;5.270;2024-02-26T08:52:56;100732.50;;;14.10;53.67
55656;BME280;41530;52.382;5.270;2024-02-26T08:55:23;100715.47;;;14.03;53.73
55656;BME280;41530;52.382;5.270;2024-02-26T08:57:49;100699.56;;;13.93;53.74
55656;BME280;41530;52.382;5.270;2024-02-26T09:00:16;100685.19;;;13.86;53.64
55656;BME280;41530;52.382;5.270;2024-02-26T09:02:47;100751.34;;;14.26;53.93
55656;BME280;41530;52.382;5.270;2024-02-26T09:05:15;100722.56;;;14.02;53.59
55656;BME280;41530;52.382;5.270;2024-02-26T09:07:42;100752.03;;;14.18;53.47
55656;BME280;41530;52.382;5.270;2024-02-26T09:10:09;100787.63;;;14.35;53.67
55656;BME280;41530;52.382;5.270;2024-02-26T09:12:37;100772.13;;;14.31;53.53
55656;BME280;41530;52.382;5.270;2024-02-26T09:15:06;100765.69;;;14.23;53.57
55656;BME280;41530;52.382;5.270;2024-02-26T09:17:33;100774.31;;;14.25;53.61
55656;BME280;41530;52.382;5.270;2024-02-26T09:20:02;100791.81;;;14.38;53.62
55656;BME280;41530;52.382;5.270;2024-02-26T09:22:29;100776.84;;;14.27;53.63
55656;BME280;41530;52.382;5.270;2024-02-26T09:24:56;100792.78;;;14.37;53.34
55656;BME280;41530;52.382;5.270;2024-02-26T09:27:22;100781.75;;;14.32;53.64
55656;BME280;41530;52.382;5.270;2024-02-26T09:29:50;100797.09;;;14.38;53.47
55656;BME280;41530;52.382;5.270;2024-02-26T09:32:17;100806.00;;;14.37;53.41
55656;BME280;41530;52.382;5.270;2024-02-26T09:34:44;100800.13;;;14.33;53.65
55656;BME280;41530;52.382;5.270;2024-02-26T09:37:11;100806.69;;;14.39;53.43
55656;BME280;41530;52.382;5.270;2024-02-26T09:39:47;100803.88;;;14.31;53.46
55656;BME280;41530;52.382;5.270;2024-02-26T09:42:15;100807.25;;;14.33;53.43
55656;BME280;41530;52.382;5.270;2024-02-26T09:44:43;100817.19;;;14.40;53.32
55656;BME280;41530;52.382;5.270;2024-02-26T09:47:11;100826.53;;;14.44;53.42
55656;BME280;41530;52.382;5.270;2024-02-26T09:49:42;100817.44;;;14.37;53.29
55656;BME280;41530;52.382;5.270;2024-02-26T09:52:09;100814.22;;;14.34;53.43
55656;BME280;41530;52.382;5.270;2024-02-26T09:54:39;100841.34;;;14.47;53.39
55656;BME280;41530;52.382;5.270;2024-02-26T09:57:09;100847.59;;;14.46;53.35
55656;BME280;41530;52.382;5.270;2024-02-26T09:59:42;100850.09;;;14.47;53.27
55656;BME280;41530;52.382;5.270;2024-02-26T10:02:12;100843.91;;;14.37;53.36
55656;BME280;41530;52.382;5.270;2024-02-26T10:04:39;100839.28;;;14.39;53.22
55656;BME280;41530;52.382;5.270;2024-02-26T10:07:12;100860.69;;;14.47;53.41
55656;BME280;41530;52.382;5.270;2024-02-26T10:09:40;100821.78;;;14.17;53.33
55656;BME280;41530;52.382;5.270;2024-02-26T10:12:10;100784.78;;;13.97;53.44
55656;BME280;41530;52.382;5.270;2024-02-26T10:14:40;100855.72;;;14.33;53.36
55656;BME280;41530;52.382;5.270;2024-02-26T10:17:07;100837.28;;;14.22;53.38
55656;BME280;41530;52.382;5.270;2024-02-26T10:19:35;100839.19;;;14.20;53.27
55656;BME280;41530;52.382;5.270;2024-02-26T10:22:05;100810.56;;;14.04;53.60
55656;BME280;41530;52.382;5.270;2024-02-26T10:24:32;100811.91;;;13.99;53.24
55656;BME280;41530;52.382;5.270;2024-02-26T10:27:01;100884.66;;;14.46;53.46
55656;BME280;41530;52.382;5.270;2024-02-26T10:29:28;100890.25;;;14.52;53.44
55656;BME280;41530;52.382;5.270;2024-02-26T10:31:55;100878.06;;;14.40;53.25
55656;BME280;41530;52.382;5.270;2024-02-26T10:34:22;100893.31;;;14.48;53.36
55656;BME280;41530;52.382;5.270;2024-02-26T10:36:50;100897.75;;;14.47;53.14
55656;BME280;41530;52.382;5.270;2024-02-26T10:39:20;100900.53;;;14.46;53.21
55656;BME280;41530;52.382;5.270;2024-02-26T10:41:48;100889.94;;;14.46;53.32
55656;BME280;41530;52.382;5.270;2024-02-26T10:44:14;100912.25;;;14.53;53.44
55656;BME280;41530;52.382;5.270;2024-02-26T10:46:46;100914.78;;;14.54;53.36
55656;BME280;41530;52.382;5.270;2024-02-26T10:49:14;100907.09;;;14.51;53.34
55656;BME280;41530;52.382;5.270;2024-02-26T10:51:48;100911.00;;;14.47;53.33
55656;BME280;41530;52.382;5.270;2024-02-26T10:54:18;100908.59;;;14.44;53.22
55656;BME280;41530;52.382;5.270;2024-02-26T10:56:48;100932.34;;;14.55;53.10
55656;BME280;41530;52.382;5.270;2024-02-26T10:59:17;100925.63;;;14.51;53.20
55656;BME280;41530;52.382;5.270;2024-02-26T11:01:50;100948.81;;;14.59;53.11
55656;BME280;41530;52.382;5.270;2024-02-26T11:04:18;100940.53;;;14.52;53.27
55656;BME280;41530;52.382;5.270;2024-02-26T11:06:46;100918.47;;;14.42;53.10
55656;BME280;41530;52.382;5.270;2024-02-26T11:09:14;100916.19;;;14.38;53.04
55656;BME280;41530;52.382;5.270;2024-02-26T11:11:42;100945.00;;;14.52;53.14
55656;BME280;41530;52.382;5.270;2024-02-26T11:14:09;100963.72;;;14.60;53.12
55656;BME280;41530;52.382;5.270;2024-02-26T11:16:40;100919.22;;;14.33;53.26
55656;BME280;41530;52.382;5.270;2024-02-26T11:19:10;100951.00;;;14.54;53.09
55656;BME280;41530;52.382;5.270;2024-02-26T11:21:39;100912.19;;;14.22;52.98
55656;BME280;41530;52.382;5.270;2024-02-26T11:24:14;100924.50;;;14.33;53.08
55656;BME280;41530;52.382;5.270;2024-02-26T11:26:48;100931.91;;;14.39;53.03
55656;BME280;41530;52.382;5.270;2024-02-26T11:29:21;100942.63;;;14.49;52.81
55656;BME280;41530;52.382;5.270;2024-02-26T11:31:50;100946.13;;;14.49;53.00
55656;BME280;41530;52.382;5.270;2024-02-26T11:34:17;100927.03;;;14.35;52.96
55656;BME280;41530;52.382;5.270;2024-02-26T11:36:46;100976.13;;;14.59;52.82
55656;BME280;41530;52.382;5.270;2024-02-26T11:39:14;100975.75;;;14.64;52.80
55656;BME280;41530;52.382;5.270;2024-02-26T11:41:43;100976.00;;;14.61;52.87
55656;BME280;41530;52.382;5.270;2024-02-26T11:44:10;100992.66;;;14.73;53.02
55656;BME280;41530;52.382;5.270;2024-02-26T11:46:41;100961.88;;;14.51;52.60
55656;BME280;41530;52.382;5.270;2024-02-26T11:49:38;100986.06;;;14.67;52.72
55656;BME280;41530;52.382;5.270;2024-02-26T11:52:08;100948.88;;;14.48;52.67
55656;BME280;41530;52.382;5.270;2024-02-26T11:54:48;100986.41;;;14.74;52.70
55656;BME280;41530;52.382;5.270;2024-02-26T11:57:27;100991.44;;;14.77;52.78
55656;BME280;41530;52.382;5.270;2024-02-26T11:59:57;100962.69;;;14.51;52.74
55656;BME280;41530;52.382;5.270;2024-02-26T12:02:44;100998.41;;;14.78;52.77
55656;BME280;41530;52.382;5.270;2024-02-26T12:05:20;101003.72;;;14.78;52.81
55656;BME280;41530;52.382;5.270;2024-02-26T12:08:05;100987.88;;;14.67;52.67
55656;BME280;41530;52.382;5.270;2024-02-26T12:10:39;101002.28;;;14.74;52.99
55656;BME280;41530;52.382;5.270;2024-02-26T12:13:16;101010.66;;;14.79;52.76
55656;BME280;41530;52.382;5.270;2024-02-26T12:15:55;101012.47;;;14.78;52.55
55656;BME280;41530;52.382;5.270;2024-02-26T12:18:23;101004.69;;;14.77;52.60
55656;BME280;41530;52.382;5.270;2024-02-26T12:21:00;101001.81;;;14.69;52.46
55656;BME280;41530;52.382;5.270;2024-02-26T12:23:30;101018.03;;;14.75;52.50
55656;BME280;41530;52.382;5.270;2024-02-26T12:26:00;101026.44;;;14.80;52.52
55656;BME280;41530;52.382;5.270;2024-02-26T12:28:32;101015.53;;;14.74;52.51
55656;BME280;41530;52.382;5.270;2024-02-26T12:30:59;101015.53;;;14.74;52.57
55656;BME280;41530;52.382;5.270;2024-02-26T12:33:27;101027.69;;;14.76;52.66
55656;BME280;41530;52.382;5.270;2024-02-26T12:35:55;101019.25;;;14.71;52.43
55656;BME280;41530;52.382;5.270;2024-02-26T12:38:22;101033.41;;;14.81;52.70
55656;BME280;41530;52.382;5.270;2024-02-26T12:40:49;101030.31;;;14.76;52.51
55656;BME280;41530;52.382;5.270;2024-02-26T12:43:16;101025.72;;;14.78;52.37
55656;BME280;41530;52.382;5.270;2024-02-26T12:45:43;101035.63;;;14.76;52.36
55656;BME280;41530;52.382;5.270;2024-02-26T12:48:13;101039.66;;;14.80;52.48
55656;BME280;41530;52.382;5.270;2024-02-26T12:50:44;101044.25;;;14.78;52.47
55656;BME280;41530;52.382;5.270;2024-02-26T12:53:11;101042.72;;;14.76;52.38
55656;BME280;41530;52.382;5.270;2024-02-26T12:55:38;101045.50;;;14.74;52.30